Baxter, Arkansas
Current Conditions -  °F | °C
As of 1:53 AM on Saturday 20 Dec 2014 (Local Time) from KLLQ Reporting Station
Overcast Overcast  
Wind Chill: 43°   Ceiling: 4700
Heat Index: 43°   Visibility: 8mi
Dew Point: 39°   Wind: 3mph
Humidity: 86%   Direction: 20°NNE
Pressure: 30.21"   Gusts: NA
Location:  33.4898°N, 91.4556°W
Report Text: KLLQ 200753Z AUTO 02003KT 8SM OVC047 06/04 A3021 RMK AO2 SLP231 T00610039
Loading
Personal Weather Stations






























Interactive Weather Map New forecast layout! Learn more

10-Day Weather Forecast

Advertisements
Track Severe Weather on mobile